sensor_id;sensor_type;location;lat;lon;timestamp;P1;durP1;ratioP1;P2;durP2;ratioP2
79212;SDS011;68639;52.380;9.822;2023-07-28T00:01:06;7.28;;;4.40;;
79212;SDS011;68639;52.380;9.822;2023-07-28T00:03:31;9.35;;;4.20;;
79212;SDS011;68639;52.380;9.822;2023-07-28T00:05:56;9.85;;;4.43;;
79212;SDS011;68639;52.380;9.822;2023-07-28T00:08:22;8.75;;;4.00;;
79212;SDS011;68639;52.380;9.822;2023-07-28T00:10:47;6.93;;;4.68;;
79212;SDS011;68639;52.380;9.822;2023-07-28T00:13:12;7.30;;;4.05;;
79212;SDS011;68639;52.380;9.822;2023-07-28T00:15:37;5.70;;;3.60;;
79212;SDS011;68639;52.380;9.822;2023-07-28T00:18:03;4.72;;;3.40;;
79212;SDS011;68639;52.380;9.822;2023-07-28T00:20:28;8.07;;;4.00;;
79212;SDS011;68639;52.380;9.822;2023-07-28T00:22:53;7.25;;;3.83;;
79212;SDS011;68639;52.380;9.822;2023-07-28T00:25:18;6.03;;;3.63;;
79212;SDS011;68639;52.380;9.822;2023-07-28T00:27:43;5.95;;;3.00;;
79212;SDS011;68639;52.380;9.822;2023-07-28T00:30:09;6.40;;;3.15;;
79212;SDS011;68639;52.380;9.822;2023-07-28T00:32:35;3.13;;;2.72;;
79212;SDS011;68639;52.380;9.822;2023-07-28T00:35:00;4.60;;;2.75;;
79212;SDS011;68639;52.380;9.822;2023-07-28T00:37:25;4.97;;;2.60;;
79212;SDS011;68639;52.380;9.822;2023-07-28T00:39:50;4.05;;;3.03;;
79212;SDS011;68639;52.380;9.822;2023-07-28T00:42:16;7.25;;;2.60;;
79212;SDS011;68639;52.380;9.822;2023-07-28T00:44:41;7.55;;;2.75;;
79212;SDS011;68639;52.380;9.822;2023-07-28T00:47:06;4.43;;;2.40;;
79212;SDS011;68639;52.380;9.822;2023-07-28T00:49:31;3.75;;;2.50;;
79212;SDS011;68639;52.380;9.822;2023-07-28T00:51:57;6.00;;;2.88;;
79212;SDS011;68639;52.380;9.822;2023-07-28T00:54:22;5.65;;;3.10;;
79212;SDS011;68639;52.380;9.822;2023-07-28T00:56:48;4.85;;;2.72;;
79212;SDS011;68639;52.380;9.822;2023-07-28T00:59:14;4.55;;;2.90;;
79212;SDS011;68639;52.380;9.822;2023-07-28T01:01:39;3.88;;;2.85;;
79212;SDS011;68639;52.380;9.822;2023-07-28T01:04:04;8.02;;;3.40;;
79212;SDS011;68639;52.380;9.822;2023-07-28T01:06:34;4.35;;;3.00;;
79212;SDS011;68639;52.380;9.822;2023-07-28T01:09:03;4.95;;;3.20;;
79212;SDS011;68639;52.380;9.822;2023-07-28T01:11:29;5.13;;;2.78;;
79212;SDS011;68639;52.380;9.822;2023-07-28T01:13:54;5.95;;;2.90;;
79212;SDS011;68639;52.380;9.822;2023-07-28T01:16:19;6.75;;;3.13;;
79212;SDS011;68639;52.380;9.822;2023-07-28T01:18:44;5.78;;;2.58;;
79212;SDS011;68639;52.380;9.822;2023-07-28T01:21:20;8.13;;;3.00;;
79212;SDS011;68639;52.380;9.822;2023-07-28T01:26:11;8.03;;;3.23;;
79212;SDS011;68639;52.380;9.822;2023-07-28T01:28:37;5.72;;;3.50;;
79212;SDS011;68639;52.380;9.822;2023-07-28T01:31:03;7.60;;;3.03;;
79212;SDS011;68639;52.380;9.822;2023-07-28T01:33:29;4.22;;;2.65;;
79212;SDS011;68639;52.380;9.822;2023-07-28T01:35:54;8.77;;;3.28;;
79212;SDS011;68639;52.380;9.822;2023-07-28T01:38:20;4.45;;;2.53;;
79212;SDS011;68639;52.380;9.822;2023-07-28T01:40:45;3.85;;;2.40;;
79212;SDS011;68639;52.380;9.822;2023-07-28T01:43:10;4.10;;;2.60;;
79212;SDS011;68639;52.380;9.822;2023-07-28T01:45:35;3.40;;;2.53;;
79212;SDS011;68639;52.380;9.822;2023-07-28T01:48:01;11.80;;;2.55;;
79212;SDS011;68639;52.380;9.822;2023-07-28T01:50:26;5.15;;;2.40;;
79212;SDS011;68639;52.380;9.822;2023-07-28T01:52:51;6.03;;;2.72;;
79212;SDS011;68639;52.380;9.822;2023-07-28T01:55:16;6.30;;;2.97;;
79212;SDS011;68639;52.380;9.822;2023-07-28T01:57:49;6.00;;;2.72;;
79212;SDS011;68639;52.380;9.822;2023-07-28T02:00:15;4.30;;;2.85;;
79212;SDS011;68639;52.380;9.822;2023-07-28T02:02:40;4.45;;;2.50;;
79212;SDS011;68639;52.380;9.822;2023-07-28T02:05:05;4.65;;;2.50;;
79212;SDS011;68639;52.380;9.822;2023-07-28T02:07:31;5.78;;;2.83;;
79212;SDS011;68639;52.380;9.822;2023-07-28T02:09:56;3.20;;;2.50;;
79212;SDS011;68639;52.380;9.822;2023-07-28T02:12:22;4.22;;;2.30;;
79212;SDS011;68639;52.380;9.822;2023-07-28T02:14:47;6.95;;;2.67;;
79212;SDS011;68639;52.380;9.822;2023-07-28T02:17:12;3.72;;;2.60;;
79212;SDS011;68639;52.380;9.822;2023-07-28T02:19:37;4.55;;;2.50;;
79212;SDS011;68639;52.380;9.822;2023-07-28T02:22:03;4.45;;;2.80;;
79212;SDS011;68639;52.380;9.822;2023-07-28T02:24:28;7.93;;;2.50;;
79212;SDS011;68639;52.380;9.822;2023-07-28T02:26:53;6.43;;;3.45;;
79212;SDS011;68639;52.380;9.822;2023-07-28T02:29:19;4.57;;;2.00;;
79212;SDS011;68639;52.380;9.822;2023-07-28T02:31:44;5.03;;;2.67;;
79212;SDS011;68639;52.380;9.822;2023-07-28T02:34:10;4.93;;;2.20;;
79212;SDS011;68639;52.380;9.822;2023-07-28T02:36:35;4.45;;;2.13;;
79212;SDS011;68639;52.380;9.822;2023-07-28T02:39:00;5.78;;;2.55;;
79212;SDS011;68639;52.380;9.822;2023-07-28T02:41:25;3.20;;;2.42;;
79212;SDS011;68639;52.380;9.822;2023-07-28T02:43:50;5.45;;;2.53;;
79212;SDS011;68639;52.380;9.822;2023-07-28T02:46:16;3.50;;;2.28;;
79212;SDS011;68639;52.380;9.822;2023-07-28T02:48:41;4.85;;;2.55;;
79212;SDS011;68639;52.380;9.822;2023-07-28T02:51:06;3.40;;;2.15;;
79212;SDS011;68639;52.380;9.822;2023-07-28T02:53:31;2.75;;;2.10;;
79212;SDS011;68639;52.380;9.822;2023-07-28T02:55:56;5.18;;;2.42;;
79212;SDS011;68639;52.380;9.822;2023-07-28T02:58:22;5.40;;;2.30;;
79212;SDS011;68639;52.380;9.822;2023-07-28T03:00:47;5.22;;;2.30;;
79212;SDS011;68639;52.380;9.822;2023-07-28T03:03:12;5.15;;;2.10;;
79212;SDS011;68639;52.380;9.822;2023-07-28T03:05:38;4.07;;;2.45;;
79212;SDS011;68639;52.380;9.822;2023-07-28T03:08:03;3.53;;;2.20;;
79212;SDS011;68639;52.380;9.822;2023-07-28T03:10:29;3.95;;;2.20;;
79212;SDS011;68639;52.380;9.822;2023-07-28T03:12:54;4.18;;;2.40;;
79212;SDS011;68639;52.380;9.822;2023-07-28T03:15:20;3.75;;;2.00;;
79212;SDS011;68639;52.380;9.822;2023-07-28T03:17:46;3.05;;;1.98;;
79212;SDS011;68639;52.380;9.822;2023-07-28T03:20:12;5.10;;;2.47;;
79212;SDS011;68639;52.380;9.822;2023-07-28T03:22:37;3.85;;;1.88;;
79212;SDS011;68639;52.380;9.822;2023-07-28T03:25:02;2.58;;;2.10;;
79212;SDS011;68639;52.380;9.822;2023-07-28T03:27:28;5.15;;;2.08;;
79212;SDS011;68639;52.380;9.822;2023-07-28T03:29:53;3.40;;;1.77;;
79212;SDS011;68639;52.380;9.822;2023-07-28T03:32:18;4.28;;;2.08;;
79212;SDS011;68639;52.380;9.822;2023-07-28T03:34:43;3.17;;;1.70;;
79212;SDS011;68639;52.380;9.822;2023-07-28T03:37:09;6.68;;;2.35;;
79212;SDS011;68639;52.380;9.822;2023-07-28T03:39:34;3.13;;;2.05;;
79212;SDS011;68639;52.380;9.822;2023-07-28T03:41:59;4.10;;;1.90;;
79212;SDS011;68639;52.380;9.822;2023-07-28T03:44:24;3.20;;;1.90;;
79212;SDS011;68639;52.380;9.822;2023-07-28T03:46:50;3.97;;;1.80;;
79212;SDS011;68639;52.380;9.822;2023-07-28T03:49:15;3.03;;;1.70;;
79212;SDS011;68639;52.380;9.822;2023-07-28T03:51:40;2.85;;;1.60;;
79212;SDS011;68639;52.380;9.822;2023-07-28T03:54:05;4.68;;;1.90;;
79212;SDS011;68639;52.380;9.822;2023-07-28T03:56:31;2.45;;;1.65;;
79212;SDS011;68639;52.380;9.822;2023-07-28T03:58:56;4.75;;;1.80;;
79212;SDS011;68639;52.380;9.822;2023-07-28T04:01:21;4.47;;;1.92;;
79212;SDS011;68639;52.380;9.822;2023-07-28T04:03:47;4.40;;;1.90;;
79212;SDS011;68639;52.380;9.822;2023-07-28T04:06:12;3.72;;;1.70;;
79212;SDS011;68639;52.380;9.822;2023-07-28T04:08:37;3.35;;;1.45;;
79212;SDS011;68639;52.380;9.822;2023-07-28T04:11:03;2.60;;;1.65;;
79212;SDS011;68639;52.380;9.822;2023-07-28T04:13:28;4.22;;;1.83;;
79212;SDS011;68639;52.380;9.822;2023-07-28T04:15:53;3.55;;;1.30;;
79212;SDS011;68639;52.380;9.822;2023-07-28T04:18:19;2.47;;;1.50;;
79212;SDS011;68639;52.380;9.822;2023-07-28T04:20:45;4.25;;;1.52;;
79212;SDS011;68639;52.380;9.822;2023-07-28T04:23:11;3.05;;;1.48;;
79212;SDS011;68639;52.380;9.822;2023-07-28T04:25:36;1.77;;;1.38;;
79212;SDS011;68639;52.380;9.822;2023-07-28T04:28:01;2.53;;;1.40;;
79212;SDS011;68639;52.380;9.822;2023-07-28T04:30:26;3.33;;;1.95;;
79212;SDS011;68639;52.380;9.822;2023-07-28T04:32:51;3.38;;;1.52;;
79212;SDS011;68639;52.380;9.822;2023-07-28T04:35:17;3.53;;;1.58;;
79212;SDS011;68639;52.380;9.822;2023-07-28T04:37:42;2.83;;;1.55;;
79212;SDS011;68639;52.380;9.822;2023-07-28T04:40:07;2.42;;;1.65;;
79212;SDS011;68639;52.380;9.822;2023-07-28T04:42:33;3.33;;;1.88;;
79212;SDS011;68639;52.380;9.822;2023-07-28T04:44:59;2.42;;;1.67;;
79212;SDS011;68639;52.380;9.822;2023-07-28T04:47:24;1.92;;;1.60;;
79212;SDS011;68639;52.380;9.822;2023-07-28T04:49:49;2.33;;;2.00;;
79212;SDS011;68639;52.380;9.822;2023-07-28T04:52:14;3.58;;;1.90;;
79212;SDS011;68639;52.380;9.822;2023-07-28T04:54:39;2.33;;;1.70;;
79212;SDS011;68639;52.380;9.822;2023-07-28T04:57:05;3.17;;;1.70;;
79212;SDS011;68639;52.380;9.822;2023-07-28T04:59:30;3.03;;;1.90;;
79212;SDS011;68639;52.380;9.822;2023-07-28T05:01:56;4.35;;;2.00;;
79212;SDS011;68639;52.380;9.822;2023-07-28T05:04:21;2.65;;;1.77;;
79212;SDS011;68639;52.380;9.822;2023-07-28T05:06:46;4.05;;;1.80;;
79212;SDS011;68639;52.380;9.822;2023-07-28T05:09:11;2.05;;;1.85;;
79212;SDS011;68639;52.380;9.822;2023-07-28T05:11:37;2.42;;;1.60;;
79212;SDS011;68639;52.380;9.822;2023-07-28T05:14:02;5.93;;;2.08;;
79212;SDS011;68639;52.380;9.822;2023-07-28T05:16:27;2.17;;;1.60;;
79212;SDS011;68639;52.380;9.822;2023-07-28T05:18:52;2.53;;;1.65;;
79212;SDS011;68639;52.380;9.822;2023-07-28T05:21:17;2.38;;;1.60;;
79212;SDS011;68639;52.380;9.822;2023-07-28T05:23:43;3.10;;;1.40;;
79212;SDS011;68639;52.380;9.822;2023-07-28T05:26:08;4.00;;;3.25;;
79212;SDS011;68639;52.380;9.822;2023-07-28T05:28:33;2.80;;;1.52;;
79212;SDS011;68639;52.380;9.822;2023-07-28T05:31:05;2.47;;;1.45;;
79212;SDS011;68639;52.380;9.822;2023-07-28T05:33:30;2.88;;;1.45;;
79212;SDS011;68639;52.380;9.822;2023-07-28T05:36:02;2.53;;;1.75;;
79212;SDS011;68639;52.380;9.822;2023-07-28T05:38:28;2.50;;;1.42;;
79212;SDS011;68639;52.380;9.822;2023-07-28T05:41:00;5.45;;;1.77;;
79212;SDS011;68639;52.380;9.822;2023-07-28T05:43:28;2.70;;;1.70;;
79212;SDS011;68639;52.380;9.822;2023-07-28T05:45:53;2.92;;;1.65;;
79212;SDS011;68639;52.380;9.822;2023-07-28T05:48:18;4.80;;;1.60;;
79212;SDS011;68639;52.380;9.822;2023-07-28T05:50:44;2.42;;;1.50;;
79212;SDS011;68639;52.380;9.822;2023-07-28T05:53:09;3.13;;;1.90;;
79212;SDS011;68639;52.380;9.822;2023-07-28T05:55:34;3.67;;;2.13;;
79212;SDS011;68639;52.380;9.822;2023-07-28T05:57:59;4.53;;;2.60;;
79212;SDS011;68639;52.380;9.822;2023-07-28T06:00:25;4.18;;;2.50;;
79212;SDS011;68639;52.380;9.822;2023-07-28T06:02:50;4.18;;;2.55;;
79212;SDS011;68639;52.380;9.822;2023-07-28T06:05:15;5.45;;;2.83;;
79212;SDS011;68639;52.380;9.822;2023-07-28T06:07:40;4.85;;;2.47;;
79212;SDS011;68639;52.380;9.822;2023-07-28T06:10:06;3.88;;;2.40;;
79212;SDS011;68639;52.380;9.822;2023-07-28T06:12:31;7.28;;;2.70;;
79212;SDS011;68639;52.380;9.822;2023-07-28T06:14:56;5.85;;;2.72;;
79212;SDS011;68639;52.380;9.822;2023-07-28T06:17:21;3.85;;;2.30;;
79212;SDS011;68639;52.380;9.822;2023-07-28T06:19:47;3.28;;;2.22;;
79212;SDS011;68639;52.380;9.822;2023-07-28T06:22:12;4.80;;;2.60;;
79212;SDS011;68639;52.380;9.822;2023-07-28T06:24:37;7.07;;;2.70;;
79212;SDS011;68639;52.380;9.822;2023-07-28T06:27:02;7.72;;;2.60;;
79212;SDS011;68639;52.380;9.822;2023-07-28T06:29:32;5.35;;;2.58;;
79212;SDS011;68639;52.380;9.822;2023-07-28T06:31:58;5.82;;;2.70;;
79212;SDS011;68639;52.380;9.822;2023-07-28T06:34:23;4.75;;;2.67;;
79212;SDS011;68639;52.380;9.822;2023-07-28T06:36:48;6.63;;;2.47;;
79212;SDS011;68639;52.380;9.822;2023-07-28T06:39:13;3.25;;;2.72;;
79212;SDS011;68639;52.380;9.822;2023-07-28T06:41:38;5.00;;;3.22;;
79212;SDS011;68639;52.380;9.822;2023-07-28T06:44:04;5.60;;;2.38;;
79212;SDS011;68639;52.380;9.822;2023-07-28T06:46:29;4.03;;;2.28;;
79212;SDS011;68639;52.380;9.822;2023-07-28T06:48:55;2.97;;;2.42;;
79212;SDS011;68639;52.380;9.822;2023-07-28T06:51:20;4.18;;;2.20;;
79212;SDS011;68639;52.380;9.822;2023-07-28T06:53:45;5.32;;;2.50;;
79212;SDS011;68639;52.380;9.822;2023-07-28T06:56:10;2.78;;;2.28;;
79212;SDS011;68639;52.380;9.822;2023-07-28T06:58:36;4.82;;;2.72;;
79212;SDS011;68639;52.380;9.822;2023-07-28T07:01:01;4.72;;;1.95;;
79212;SDS011;68639;52.380;9.822;2023-07-28T07:03:26;3.17;;;2.22;;
79212;SDS011;68639;52.380;9.822;2023-07-28T07:05:52;4.05;;;2.22;;
79212;SDS011;68639;52.380;9.822;2023-07-28T07:08:17;2.33;;;1.63;;
79212;SDS011;68639;52.380;9.822;2023-07-28T07:10:49;5.57;;;1.83;;
79212;SDS011;68639;52.380;9.822;2023-07-28T07:13:15;3.17;;;1.90;;
79212;SDS011;68639;52.380;9.822;2023-07-28T07:15:40;4.80;;;2.00;;
79212;SDS011;68639;52.380;9.822;2023-07-28T07:18:07;4.18;;;2.13;;
79212;SDS011;68639;52.380;9.822;2023-07-28T07:20:34;4.80;;;2.22;;
79212;SDS011;68639;52.380;9.822;2023-07-28T07:22:59;4.22;;;2.03;;
79212;SDS011;68639;52.380;9.822;2023-07-28T07:25:24;5.38;;;2.40;;
79212;SDS011;68639;52.380;9.822;2023-07-28T07:27:51;3.50;;;2.30;;
79212;SDS011;68639;52.380;9.822;2023-07-28T07:30:16;4.28;;;2.35;;
79212;SDS011;68639;52.380;9.822;2023-07-28T07:32:41;6.55;;;1.92;;
79212;SDS011;68639;52.380;9.822;2023-07-28T07:35:07;3.75;;;2.30;;
79212;SDS011;68639;52.380;9.822;2023-07-28T07:37:33;2.90;;;2.38;;
79212;SDS011;68639;52.380;9.822;2023-07-28T07:39:58;3.55;;;2.03;;
79212;SDS011;68639;52.380;9.822;2023-07-28T07:42:25;3.33;;;2.15;;
79212;SDS011;68639;52.380;9.822;2023-07-28T07:44:51;3.50;;;2.30;;
79212;SDS011;68639;52.380;9.822;2023-07-28T07:47:16;3.40;;;2.10;;
79212;SDS011;68639;52.380;9.822;2023-07-28T07:49:42;2.50;;;2.03;;
79212;SDS011;68639;52.380;9.822;2023-07-28T07:52:07;6.10;;;2.60;;
79212;SDS011;68639;52.380;9.822;2023-07-28T07:54:34;5.72;;;2.35;;
79212;SDS011;68639;52.380;9.822;2023-07-28T07:56:59;4.35;;;2.60;;
79212;SDS011;68639;52.380;9.822;2023-07-28T07:59:24;4.25;;;2.80;;
79212;SDS011;68639;52.380;9.822;2023-07-28T08:01:53;2.55;;;1.95;;
79212;SDS011;68639;52.380;9.822;2023-07-28T08:04:18;3.63;;;2.10;;
79212;SDS011;68639;52.380;9.822;2023-07-28T08:06:43;3.63;;;2.38;;
79212;SDS011;68639;52.380;9.822;2023-07-28T08:09:08;8.55;;;2.20;;
79212;SDS011;68639;52.380;9.822;2023-07-28T08:11:34;10.57;;;2.60;;
79212;SDS011;68639;52.380;9.822;2023-07-28T08:14:00;3.60;;;2.17;;
79212;SDS011;68639;52.380;9.822;2023-07-28T08:16:25;4.25;;;2.20;;
79212;SDS011;68639;52.380;9.822;2023-07-28T08:18:50;3.75;;;2.25;;
79212;SDS011;68639;52.380;9.822;2023-07-28T08:21:15;3.13;;;2.20;;
79212;SDS011;68639;52.380;9.822;2023-07-28T08:23:40;3.35;;;1.70;;
79212;SDS011;68639;52.380;9.822;2023-07-28T08:26:06;4.22;;;1.70;;
79212;SDS011;68639;52.380;9.822;2023-07-28T08:28:31;2.78;;;1.88;;
79212;SDS011;68639;52.380;9.822;2023-07-28T08:30:57;4.05;;;1.90;;
79212;SDS011;68639;52.380;9.822;2023-07-28T08:33:24;2.78;;;1.80;;
79212;SDS011;68639;52.380;9.822;2023-07-28T08:35:49;2.30;;;1.60;;
79212;SDS011;68639;52.380;9.822;2023-07-28T08:38:14;3.15;;;1.58;;
79212;SDS011;68639;52.380;9.822;2023-07-28T08:40:40;2.60;;;1.10;;
79212;SDS011;68639;52.380;9.822;2023-07-28T08:43:05;3.35;;;1.50;;
79212;SDS011;68639;52.380;9.822;2023-07-28T08:45:30;3.42;;;1.52;;
79212;SDS011;68639;52.380;9.822;2023-07-28T08:47:56;3.53;;;1.50;;
79212;SDS011;68639;52.380;9.822;2023-07-28T08:50:21;2.90;;;1.40;;
79212;SDS011;68639;52.380;9.822;2023-07-28T08:52:46;2.33;;;1.33;;
79212;SDS011;68639;52.380;9.822;2023-07-28T08:55:11;2.60;;;1.50;;
79212;SDS011;68639;52.380;9.822;2023-07-28T08:57:38;2.80;;;1.70;;
79212;SDS011;68639;52.380;9.822;2023-07-28T09:00:07;1.83;;;1.20;;
79212;SDS011;68639;52.380;9.822;2023-07-28T09:02:34;3.28;;;1.50;;
79212;SDS011;68639;52.380;9.822;2023-07-28T09:04:59;2.42;;;1.30;;
79212;SDS011;68639;52.380;9.822;2023-07-28T09:07:33;3.38;;;1.23;;
79212;SDS011;68639;52.380;9.822;2023-07-28T09:09:59;3.15;;;1.35;;
79212;SDS011;68639;52.380;9.822;2023-07-28T09:12:25;3.92;;;1.20;;
79212;SDS011;68639;52.380;9.822;2023-07-28T09:14:53;1.67;;;1.23;;
79212;SDS011;68639;52.380;9.822;2023-07-28T09:17:20;1.35;;;1.15;;
79212;SDS011;68639;52.380;9.822;2023-07-28T09:19:55;3.10;;;1.30;;
79212;SDS011;68639;52.380;9.822;2023-07-28T09:22:21;2.22;;;1.25;;
79212;SDS011;68639;52.380;9.822;2023-07-28T09:24:47;3.75;;;1.25;;
79212;SDS011;68639;52.380;9.822;2023-07-28T09:27:19;2.65;;;1.20;;
79212;SDS011;68639;52.380;9.822;2023-07-28T09:29:49;2.50;;;1.10;;
79212;SDS011;68639;52.380;9.822;2023-07-28T09:32:15;3.97;;;1.20;;
79212;SDS011;68639;52.380;9.822;2023-07-28T09:34:40;1.73;;;1.20;;
79212;SDS011;68639;52.380;9.822;2023-07-28T09:37:05;3.92;;;1.27;;
79212;SDS011;68639;52.380;9.822;2023-07-28T09:39:31;2.42;;;1.15;;
79212;SDS011;68639;52.380;9.822;2023-07-28T09:41:59;5.90;;;1.75;;
79212;SDS011;68639;52.380;9.822;2023-07-28T09:44:24;4.25;;;1.35;;
79212;SDS011;68639;52.380;9.822;2023-07-28T09:46:50;3.65;;;1.27;;
79212;SDS011;68639;52.380;9.822;2023-07-28T09:49:19;5.18;;;1.30;;
79212;SDS011;68639;52.380;9.822;2023-07-28T09:51:45;1.90;;;1.30;;
79212;SDS011;68639;52.380;9.822;2023-07-28T09:54:12;3.38;;;1.48;;
79212;SDS011;68639;52.380;9.822;2023-07-28T09:56:40;4.82;;;1.50;;
79212;SDS011;68639;52.380;9.822;2023-07-28T09:59:08;2.45;;;1.40;;
79212;SDS011;68639;52.380;9.822;2023-07-28T10:01:35;3.03;;;1.33;;
79212;SDS011;68639;52.380;9.822;2023-07-28T10:04:01;3.83;;;1.35;;
79212;SDS011;68639;52.380;9.822;2023-07-28T10:06:26;4.03;;;1.45;;
79212;SDS011;68639;52.380;9.822;2023-07-28T10:08:51;2.88;;;1.30;;
79212;SDS011;68639;52.380;9.822;2023-07-28T10:11:17;2.35;;;1.15;;
79212;SDS011;68639;52.380;9.822;2023-07-28T10:13:43;1.92;;;1.10;;
79212;SDS011;68639;52.380;9.822;2023-07-28T10:16:08;3.72;;;1.45;;
79212;SDS011;68639;52.380;9.822;2023-07-28T10:18:39;1.83;;;1.20;;
79212;SDS011;68639;52.380;9.822;2023-07-28T10:21:05;2.45;;;1.20;;
79212;SDS011;68639;52.380;9.822;2023-07-28T10:23:32;1.88;;;1.35;;
79212;SDS011;68639;52.380;9.822;2023-07-28T10:25:59;2.58;;;1.30;;
79212;SDS011;68639;52.380;9.822;2023-07-28T10:30:51;2.57;;;1.40;;
79212;SDS011;68639;52.380;9.822;2023-07-28T10:33:29;1.98;;;1.30;;
79212;SDS011;68639;52.380;9.822;2023-07-28T10:35:55;3.17;;;1.30;;
79212;SDS011;68639;52.380;9.822;2023-07-28T10:41:04;3.78;;;1.40;;
79212;SDS011;68639;52.380;9.822;2023-07-28T10:43:30;4.55;;;1.40;;
79212;SDS011;68639;52.380;9.822;2023-07-28T10:45:55;2.53;;;1.48;;
79212;SDS011;68639;52.380;9.822;2023-07-28T10:48:21;3.45;;;1.23;;
79212;SDS011;68639;52.380;9.822;2023-07-28T10:50:49;3.35;;;1.15;;
79212;SDS011;68639;52.380;9.822;2023-07-28T10:53:14;3.47;;;1.20;;
79212;SDS011;68639;52.380;9.822;2023-07-28T10:55:40;1.70;;;1.10;;
79212;SDS011;68639;52.380;9.822;2023-07-28T10:58:05;4.55;;;1.42;;
79212;SDS011;68639;52.380;9.822;2023-07-28T11:00:31;2.13;;;1.10;;
79212;SDS011;68639;52.380;9.822;2023-07-28T11:02:56;2.70;;;1.15;;
79212;SDS011;68639;52.380;9.822;2023-07-28T11:05:26;4.88;;;1.20;;
79212;SDS011;68639;52.380;9.822;2023-07-28T11:07:54;2.08;;;1.13;;
79212;SDS011;68639;52.380;9.822;2023-07-28T11:10:19;1.63;;;1.08;;
79212;SDS011;68639;52.380;9.822;2023-07-28T11:12:46;2.40;;;1.20;;
79212;SDS011;68639;52.380;9.822;2023-07-28T11:15:13;2.05;;;1.20;;
79212;SDS011;68639;52.380;9.822;2023-07-28T11:17:39;4.85;;;1.33;;
79212;SDS011;68639;52.380;9.822;2023-07-28T11:20:05;4.70;;;1.58;;
79212;SDS011;68639;52.380;9.822;2023-07-28T11:22:35;2.63;;;1.40;;
79212;SDS011;68639;52.380;9.822;2023-07-28T11:25:01;2.28;;;1.30;;
79212;SDS011;68639;52.380;9.822;2023-07-28T11:27:26;3.70;;;1.20;;
79212;SDS011;68639;52.380;9.822;2023-07-28T11:29:53;3.30;;;1.20;;
79212;SDS011;68639;52.380;9.822;2023-07-28T11:32:18;2.22;;;1.10;;
79212;SDS011;68639;52.380;9.822;2023-07-28T11:34:43;2.95;;;1.00;;
79212;SDS011;68639;52.380;9.822;2023-07-28T11:37:09;3.10;;;1.25;;
79212;SDS011;68639;52.380;9.822;2023-07-28T11:39:34;2.72;;;1.30;;
79212;SDS011;68639;52.380;9.822;2023-07-28T11:41:59;2.15;;;1.20;;
79212;SDS011;68639;52.380;9.822;2023-07-28T11:44:25;4.00;;;1.13;;
79212;SDS011;68639;52.380;9.822;2023-07-28T11:46:50;2.10;;;1.15;;
79212;SDS011;68639;52.380;9.822;2023-07-28T11:49:20;5.35;;;1.40;;
79212;SDS011;68639;52.380;9.822;2023-07-28T11:51:49;3.70;;;1.30;;
79212;SDS011;68639;52.380;9.822;2023-07-28T11:54:15;4.05;;;1.38;;
79212;SDS011;68639;52.380;9.822;2023-07-28T11:56:41;3.00;;;1.30;;
79212;SDS011;68639;52.380;9.822;2023-07-28T11:59:07;6.38;;;1.38;;
79212;SDS011;68639;52.380;9.822;2023-07-28T12:01:32;4.75;;;1.40;;
79212;SDS011;68639;52.380;9.822;2023-07-28T12:03:57;3.00;;;1.17;;
79212;SDS011;68639;52.380;9.822;2023-07-28T12:06:25;4.00;;;1.27;;
79212;SDS011;68639;52.380;9.822;2023-07-28T12:08:50;2.47;;;1.20;;
79212;SDS011;68639;52.380;9.822;2023-07-28T12:11:15;2.10;;;1.10;;
79212;SDS011;68639;52.380;9.822;2023-07-28T12:13:49;2.45;;;1.40;;
79212;SDS011;68639;52.380;9.822;2023-07-28T12:18:58;2.28;;;1.20;;
79212;SDS011;68639;52.380;9.822;2023-07-28T12:21:23;2.72;;;1.20;;
79212;SDS011;68639;52.380;9.822;2023-07-28T12:23:48;2.70;;;1.40;;
79212;SDS011;68639;52.380;9.822;2023-07-28T12:26:14;2.50;;;1.10;;
79212;SDS011;68639;52.380;9.822;2023-07-28T12:28:39;4.13;;;1.27;;
79212;SDS011;68639;52.380;9.822;2023-07-28T12:31:04;2.63;;;1.10;;
79212;SDS011;68639;52.380;9.822;2023-07-28T12:33:29;2.03;;;1.33;;
79212;SDS011;68639;52.380;9.822;2023-07-28T12:35:54;2.43;;;1.00;;
79212;SDS011;68639;52.380;9.822;2023-07-28T12:38:20;2.53;;;1.05;;
79212;SDS011;68639;52.380;9.822;2023-07-28T12:40:45;1.80;;;1.10;;
79212;SDS011;68639;52.380;9.822;2023-07-28T12:43:10;5.37;;;1.20;;
79212;SDS011;68639;52.380;9.822;2023-07-28T12:45:35;1.95;;;1.10;;
79212;SDS011;68639;52.380;9.822;2023-07-28T12:48:01;2.60;;;1.10;;
79212;SDS011;68639;52.380;9.822;2023-07-28T12:50:27;3.00;;;1.30;;
79212;SDS011;68639;52.380;9.822;2023-07-28T12:52:52;2.13;;;1.25;;
79212;SDS011;68639;52.380;9.822;2023-07-28T12:55:17;2.65;;;1.23;;
79212;SDS011;68639;52.380;9.822;2023-07-28T12:57:43;2.22;;;1.30;;
79212;SDS011;68639;52.380;9.822;2023-07-28T13:00:09;5.18;;;1.65;;
79212;SDS011;68639;52.380;9.822;2023-07-28T13:02:44;2.05;;;1.30;;
79212;SDS011;68639;52.380;9.822;2023-07-28T13:05:10;2.20;;;1.30;;
79212;SDS011;68639;52.380;9.822;2023-07-28T13:07:38;2.00;;;1.38;;
79212;SDS011;68639;52.380;9.822;2023-07-28T13:10:05;3.65;;;1.50;;
79212;SDS011;68639;52.380;9.822;2023-07-28T13:12:31;3.70;;;1.40;;
79212;SDS011;68639;52.380;9.822;2023-07-28T13:14:56;2.17;;;1.43;;
79212;SDS011;68639;52.380;9.822;2023-07-28T13:17:21;5.43;;;1.60;;
79212;SDS011;68639;52.380;9.822;2023-07-28T13:19:46;2.08;;;1.30;;
79212;SDS011;68639;52.380;9.822;2023-07-28T13:22:12;2.77;;;1.57;;
79212;SDS011;68639;52.380;9.822;2023-07-28T13:24:37;2.42;;;1.40;;
79212;SDS011;68639;52.380;9.822;2023-07-28T13:27:03;3.95;;;1.73;;
79212;SDS011;68639;52.380;9.822;2023-07-28T13:29:28;4.00;;;1.65;;
79212;SDS011;68639;52.380;9.822;2023-07-28T13:31:56;4.72;;;1.70;;
79212;SDS011;68639;52.380;9.822;2023-07-28T13:34:22;2.60;;;1.80;;
79212;SDS011;68639;52.380;9.822;2023-07-28T13:36:47;5.40;;;1.80;;
79212;SDS011;68639;52.380;9.822;2023-07-28T13:39:12;2.33;;;1.40;;
79212;SDS011;68639;52.380;9.822;2023-07-28T13:41:37;4.40;;;1.73;;
79212;SDS011;68639;52.380;9.822;2023-07-28T13:44:02;2.37;;;1.30;;
79212;SDS011;68639;52.380;9.822;2023-07-28T13:46:28;2.15;;;1.35;;
79212;SDS011;68639;52.380;9.822;2023-07-28T13:48:53;2.72;;;1.73;;
79212;SDS011;68639;52.380;9.822;2023-07-28T13:51:18;3.70;;;2.10;;
79212;SDS011;68639;52.380;9.822;2023-07-28T13:53:43;2.75;;;1.70;;
79212;SDS011;68639;52.380;9.822;2023-07-28T13:56:08;3.40;;;1.50;;
79212;SDS011;68639;52.380;9.822;2023-07-28T13:58:34;2.72;;;1.70;;
79212;SDS011;68639;52.380;9.822;2023-07-28T14:00:59;2.67;;;1.70;;
79212;SDS011;68639;52.380;9.822;2023-07-28T14:03:24;5.07;;;2.00;;
79212;SDS011;68639;52.380;9.822;2023-07-28T14:05:49;2.30;;;1.80;;
79212;SDS011;68639;52.380;9.822;2023-07-28T14:08:15;2.60;;;1.58;;
79212;SDS011;68639;52.380;9.822;2023-07-28T14:10:43;2.40;;;1.77;;
79212;SDS011;68639;52.380;9.822;2023-07-28T14:13:08;2.55;;;1.73;;
79212;SDS011;68639;52.380;9.822;2023-07-28T14:15:34;3.93;;;1.70;;
79212;SDS011;68639;52.380;9.822;2023-07-28T14:17:59;2.37;;;1.50;;
79212;SDS011;68639;52.380;9.822;2023-07-28T14:20:24;3.03;;;1.40;;
79212;SDS011;68639;52.380;9.822;2023-07-28T14:22:49;3.80;;;1.65;;
79212;SDS011;68639;52.380;9.822;2023-07-28T14:25:14;5.10;;;1.70;;
79212;SDS011;68639;52.380;9.822;2023-07-28T14:27:40;2.43;;;1.57;;
79212;SDS011;68639;52.380;9.822;2023-07-28T14:30:05;5.63;;;1.50;;
79212;SDS011;68639;52.380;9.822;2023-07-28T14:32:30;3.90;;;1.40;;
79212;SDS011;68639;52.380;9.822;2023-07-28T14:34:56;2.63;;;1.50;;
79212;SDS011;68639;52.380;9.822;2023-07-28T14:37:21;7.82;;;1.90;;
79212;SDS011;68639;52.380;9.822;2023-07-28T14:39:47;6.82;;;1.52;;
79212;SDS011;68639;52.380;9.822;2023-07-28T14:42:12;4.05;;;1.90;;
79212;SDS011;68639;52.380;9.822;2023-07-28T14:44:37;5.53;;;1.53;;
79212;SDS011;68639;52.380;9.822;2023-07-28T14:47:02;2.47;;;1.50;;
79212;SDS011;68639;52.380;9.822;2023-07-28T14:49:27;2.50;;;1.60;;